ADDS TAF Board INFO
 
 

IDs: Format: Expanded Condensed

KFLL - Ft Lauderdale-Hollyw, FL, US

Issued at 0922 UTC 31 Jul 2014
Time0853Z31/10Z31/11Z31/12Z31/13Z31/14Z31/15Z31/16Z31/17Z31/18Z31/19Z31/20Z31/21Z31/22Z
TypeOBSPRVLPRVLPRVLPRVLPRVLPRVLPRVLPRVLPRVLPRVLPRVLPRVLPRVL
Vis10>6>6>6>6>6>6>6>6>6>6>6>6>6
Cig250250250250250250250250505050505050
CoverBKNBKNBKNBKNBKNBKNBKNBKNBKNBKNBKNBKNBKNBKN
FltCat--VFRVFRVFRVFRVFRVFRVFRVFRVFRVFRVFRVFRVFR
Wx--VCSHVCSHVCSHVCSHVCSHVCSHVCSHVCTSVCTSVCTSVCTSVCTSVCTS
WDir190VRBVRBVRBVRB150150150150150150150150150
WSpd33333888101010101010
WGst----------------------------
R10/28
XWnd-3VRBVRBVRBVRB-7-7-7-9-9-9-9-9-9
HWnd-1VRBVRBVRBVRB444555555
Raw TAF
KFLL 310922Z 3109/0106 VRB03KT P6SM VCSH FEW040 SCT060 BKN250
  FM311400 15008KT P6SM VCSH SCT030 SCT060 BKN250
  FM311700 15010KT P6SM VCTS SCT030CB BKN050 BKN250
  FM010000 16007KT P6SM SCT030 BKN100 BKN250


Raw METAR
KFLL 310853Z 19003KT 10SM FEW040 BKN250 26/23 A2995 RMK AO2 SLP142 T02610228 56009

TAF Board Legend

Hazard Green Yellow Red Magenta
Visibility (sm) >5 >2.99 >0.99 <=0.99
Ceiling (100 ft) >30 >9.99 >4.99 <=4.99
Wind Speed (kt) <10 <20 <30 >=30
Wind Gust (kt) <10 <20 <30 >=30
Weather No Wx Reported Light precipitation Moderate precipitation Heavy precipitation
Flight Category VFR MVFR IFR LIFR

Page loaded:  09:26 UTC  |   02:26 AM Pacific  |   03:26 AM Mountain  |   04:26 AM Central  |   05:26 AM Eastern

 

ADVISORIES

FORECASTS

FORECASTS

OBSERVATIONS

USER TOOLS

ABOUT US